Terminal Aerodrome Forecast
Issued by NWS

Home | Current Version | Previous Version | Text Only | Print | Product List | Glossary On
Versions: 1 2 3 4 5 6 7 8 9 10 11 12 13
000
FTUS44 KOUN 261134
TAFCSM
TAF
KCSM 261134Z 2612/2712 36018G25KT P6SM OVC020
      TEMPO 2612/2614 -RA OVC008
     FM261600 35015G22KT P6SM BKN050
     FM262300 33011KT P6SM SKC=

USA.gov is the U.S. government's official web portal to all federal, state and local government web resources and services.